createdAt,value
2018-06-14T00:00:51.495Z,1004.03
2018-06-14T00:01:51.520Z,1004.03
2018-06-14T00:02:51.540Z,1004.03
2018-06-14T00:03:51.562Z,1004.04
2018-06-14T00:04:51.585Z,1004.02
2018-06-14T00:05:51.604Z,1004.01
2018-06-14T00:06:51.624Z,1004.03
2018-06-14T00:07:51.646Z,1004.03
2018-06-14T00:08:51.670Z,1004.04
2018-06-14T00:09:51.692Z,1004.04
2018-06-14T00:10:51.713Z,1004.06
2018-06-14T00:11:51.731Z,1004.06
2018-06-14T00:12:51.753Z,1004.06
2018-06-14T00:13:51.769Z,1004.04
2018-06-14T00:14:51.798Z,1004.04
2018-06-14T00:15:51.817Z,1004.03
2018-06-14T00:16:51.842Z,1004.04
2018-06-14T00:17:51.859Z,1004
2018-06-14T00:18:51.881Z,1004.01
2018-06-14T00:19:51.905Z,1004.01
2018-06-14T00:20:51.923Z,1004.02
2018-06-14T00:21:51.941Z,1004.05
2018-06-14T00:22:51.965Z,1004.04
2018-06-14T00:23:51.986Z,1004.06
2018-06-14T00:24:52.013Z,1004.04
2018-06-14T00:25:52.032Z,1004.05
2018-06-14T00:26:52.051Z,1004.09
2018-06-14T00:27:52.070Z,1004.06
2018-06-14T00:28:52.094Z,1004.07
2018-06-14T00:29:52.113Z,1004.05
2018-06-14T00:30:52.139Z,1004.04
2018-06-14T00:31:52.156Z,1004.05
2018-06-14T00:32:52.181Z,1004.04
2018-06-14T00:33:52.202Z,1004.01
2018-06-14T00:34:52.224Z,1003.99
2018-06-14T00:35:52.246Z,1004.02
2018-06-14T00:36:52.267Z,1004.02
2018-06-14T00:37:52.288Z,1003.99
2018-06-14T00:38:52.311Z,1004
2018-06-14T00:39:52.331Z,1003.98
2018-06-14T00:40:52.350Z,1004
2018-06-14T00:41:52.378Z,1003.99
2018-06-14T00:42:52.397Z,1004
2018-06-14T00:43:52.420Z,1003.97
2018-06-14T00:44:52.439Z,1003.96
2018-06-14T00:45:52.458Z,1003.97
2018-06-14T00:46:52.476Z,1003.96
2018-06-14T00:47:52.504Z,1003.96
2018-06-14T00:48:52.528Z,1004
2018-06-14T00:49:52.542Z,1004
2018-06-14T00:50:52.570Z,1004
2018-06-14T00:51:52.590Z,1004.01
2018-06-14T00:52:52.611Z,1003.97
2018-06-14T00:53:52.633Z,1003.99
2018-06-14T00:54:52.651Z,1003.98
2018-06-14T00:55:52.670Z,1003.97
2018-06-14T00:56:52.700Z,1003.97
2018-06-14T00:57:52.719Z,1003.99
2018-06-14T00:58:52.741Z,1004
2018-06-14T00:59:52.759Z,1004.01
2018-06-14T01:00:52.782Z,1004.01
2018-06-14T01:01:52.798Z,1004
2018-06-14T01:02:52.820Z,1004.03
2018-06-14T01:03:52.846Z,1004.05
2018-06-14T01:04:52.873Z,1004.02
2018-06-14T01:05:52.887Z,1004.04
2018-06-14T01:06:52.908Z,1004.02
2018-06-14T01:07:52.932Z,1003.99
2018-06-14T01:08:52.953Z,1004.01
2018-06-14T01:09:52.972Z,1004
2018-06-14T01:10:52.993Z,1003.98
2018-06-14T01:11:53.016Z,1004.01
2018-06-14T01:12:53.041Z,1003.99
2018-06-14T01:13:53.056Z,1003.99
2018-06-14T01:14:53.077Z,1003.97
2018-06-14T01:15:53.106Z,1003.94
2018-06-14T01:16:53.120Z,1004.02
2018-06-14T01:17:53.149Z,1004.01
2018-06-14T01:18:53.171Z,1004.02
2018-06-14T01:19:53.197Z,1004.02
2018-06-14T01:20:53.207Z,1004.02
2018-06-14T01:21:53.229Z,1004
2018-06-14T01:22:53.255Z,1004.02
2018-06-14T01:23:53.276Z,1004.01
2018-06-14T01:24:53.296Z,1004.06
2018-06-14T01:25:53.316Z,1004.05
2018-06-14T01:26:53.341Z,1004.02
2018-06-14T01:27:53.355Z,1004.07
2018-06-14T01:28:53.384Z,1004.08
2018-06-14T01:29:53.409Z,1004.04
2018-06-14T01:30:53.470Z,1004.08
2018-06-14T01:31:53.445Z,1004.1
2018-06-14T01:32:53.471Z,1004.09
2018-06-14T01:33:53.491Z,1004.09
2018-06-14T01:34:53.510Z,1004.08
2018-06-14T01:35:53.578Z,1004.1
2018-06-14T01:36:53.552Z,1004.09
2018-06-14T01:37:53.573Z,1004.11
2018-06-14T01:38:53.595Z,1004.11
2018-06-14T01:39:53.618Z,1004.08
2018-06-14T01:40:53.645Z,1004.11
2018-06-14T01:41:53.670Z,1004.11
2018-06-14T01:42:53.682Z,1004.1
2018-06-14T01:43:53.701Z,1004.08
2018-06-14T01:44:53.727Z,1004.09
2018-06-14T01:45:53.744Z,1004.08
2018-06-14T01:46:53.765Z,1004.09
2018-06-14T01:47:53.790Z,1004.14
2018-06-14T01:48:53.807Z,1004.14
2018-06-14T01:49:53.831Z,1004.14
2018-06-14T01:50:53.850Z,1004.08
2018-06-14T01:51:53.876Z,1004.11
2018-06-14T01:52:53.900Z,1004.15
2018-06-14T01:53:53.909Z,1004.14
2018-06-14T01:54:53.936Z,1004.09
2018-06-14T01:55:53.956Z,1004.13
2018-06-14T01:56:53.976Z,1004.08
2018-06-14T01:57:54.000Z,1004.08
2018-06-14T01:58:54.026Z,1004.05
2018-06-14T01:59:54.040Z,1004.04
2018-06-14T02:00:54.062Z,1004.03
2018-06-14T02:01:54.083Z,1004.02
2018-06-14T02:02:54.106Z,1004.02
2018-06-14T02:03:54.127Z,1004
2018-06-14T02:04:54.147Z,1004.01
2018-06-14T02:05:54.165Z,1004.04
2018-06-14T02:06:54.192Z,1004.03
2018-06-14T02:07:54.215Z,1004.01
2018-06-14T02:08:54.231Z,1004.03
2018-06-14T02:09:54.252Z,1004.02
2018-06-14T02:10:54.278Z,1004.02
2018-06-14T02:11:54.300Z,1004
2018-06-14T02:12:54.317Z,1004.03
2018-06-14T02:13:54.342Z,1004.05
2018-06-14T02:14:54.357Z,1004.06
2018-06-14T02:15:54.380Z,1004.03
2018-06-14T02:16:54.401Z,1004.06
2018-06-14T02:17:54.420Z,1004.02
2018-06-14T02:18:54.449Z,1004.07
2018-06-14T02:19:54.467Z,1004.07
2018-06-14T02:20:54.489Z,1004.12
2018-06-14T02:21:54.505Z,1004.12
2018-06-14T02:22:54.535Z,1004.12
2018-06-14T02:23:54.547Z,1004.14
2018-06-14T02:24:54.575Z,1004.11
2018-06-14T02:25:54.594Z,1004.13
2018-06-14T02:26:54.620Z,1004.16
2018-06-14T02:27:54.634Z,1004.16
2018-06-14T02:28:54.662Z,1004.14
2018-06-14T02:29:54.678Z,1004.15
2018-06-14T02:30:54.699Z,1004.18
2018-06-14T02:31:54.729Z,1004.18
2018-06-14T02:32:54.747Z,1004.18
2018-06-14T02:33:54.762Z,1004.18
2018-06-14T02:34:54.791Z,1004.2
2018-06-14T02:35:54.806Z,1004.27
2018-06-14T02:36:54.828Z,1004.23
2018-06-14T02:37:54.849Z,1004.26
2018-06-14T02:38:54.886Z,1004.25
2018-06-14T02:39:54.891Z,1004.29
2018-06-14T02:40:54.913Z,1004.29
2018-06-14T02:41:54.934Z,1004.32
2018-06-14T02:42:54.956Z,1004.31
2018-06-14T02:43:54.973Z,1004.34
2018-06-14T02:44:54.996Z,1004.34
2018-06-14T02:45:55.018Z,1004.37
2018-06-14T02:46:55.042Z,1004.43
2018-06-14T02:47:55.072Z,1004.39
2018-06-14T02:48:55.085Z,1004.41
2018-06-14T02:49:55.104Z,1004.44
2018-06-14T02:50:55.124Z,1004.43
2018-06-14T02:51:55.147Z,1004.43
2018-06-14T02:52:55.168Z,1004.5
2018-06-14T02:53:55.189Z,1004.43
2018-06-14T02:54:55.213Z,1004.43
2018-06-14T02:55:55.228Z,1004.44
2018-06-14T02:56:55.252Z,1004.47
2018-06-14T02:57:55.273Z,1004.43
2018-06-14T02:58:55.299Z,1004.46
2018-06-14T02:59:55.315Z,1004.44
2018-06-14T03:00:55.339Z,1004.47
2018-06-14T03:01:55.356Z,1004.44
2018-06-14T03:02:55.384Z,1004.41
2018-06-14T03:03:55.404Z,1004.42
2018-06-14T03:04:55.423Z,1004.4
2018-06-14T03:05:55.443Z,1004.46
2018-06-14T03:06:55.463Z,1004.45
2018-06-14T03:07:55.482Z,1004.46
2018-06-14T03:08:55.512Z,1004.46
2018-06-14T03:09:55.529Z,1004.43
2018-06-14T03:10:55.546Z,1004.44
2018-06-14T03:11:55.575Z,1004.41
2018-06-14T03:12:55.590Z,1004.45
2018-06-14T03:13:55.610Z,1004.46
2018-06-14T03:14:55.634Z,1004.46
2018-06-14T03:15:55.656Z,1004.45
2018-06-14T03:16:55.680Z,1004.47
2018-06-14T03:17:55.704Z,1004.49
2018-06-14T03:18:55.721Z,1004.54
2018-06-14T03:19:55.740Z,1004.54
2018-06-14T03:20:55.757Z,1004.56
2018-06-14T03:21:55.778Z,1004.58
2018-06-14T03:22:55.805Z,1004.61
2018-06-14T03:23:55.832Z,1004.62
2018-06-14T03:24:55.845Z,1004.62
2018-06-14T03:25:55.867Z,1004.63
2018-06-14T03:26:55.884Z,1004.62
2018-06-14T03:27:55.905Z,1004.64
2018-06-14T03:28:55.930Z,1004.61
2018-06-14T03:29:55.950Z,1004.62
2018-06-14T03:30:55.969Z,1004.63
2018-06-14T03:31:55.990Z,1004.61
2018-06-14T03:32:56.016Z,1004.64
2018-06-14T03:33:56.031Z,1004.63
2018-06-14T03:34:56.062Z,1004.59
2018-06-14T03:35:56.076Z,1004.58
2018-06-14T03:36:56.102Z,1004.58
2018-06-14T03:37:56.119Z,1004.56
2018-06-14T03:38:56.135Z,1004.59
2018-06-14T03:39:56.163Z,1004.55
2018-06-14T03:40:56.184Z,1004.51
2018-06-14T03:41:56.205Z,1004.54
2018-06-14T03:42:56.226Z,1004.54
2018-06-14T03:43:56.245Z,1004.54
2018-06-14T03:44:56.263Z,1004.54
2018-06-14T03:45:56.289Z,1004.52
2018-06-14T03:46:56.315Z,1004.54
2018-06-14T03:47:56.327Z,1004.54
2018-06-14T03:48:56.352Z,1004.54
2018-06-14T03:49:56.371Z,1004.59
2018-06-14T03:50:56.398Z,1004.57
2018-06-14T03:51:56.443Z,1004.55
2018-06-14T03:52:56.435Z,1004.59
2018-06-14T03:53:56.459Z,1004.62
2018-06-14T03:54:56.516Z,1004.58
2018-06-14T03:55:56.501Z,1004.64
2018-06-14T03:56:56.516Z,1004.62
2018-06-14T03:57:56.537Z,1004.6
2018-06-14T03:58:56.568Z,1004.64
2018-06-14T03:59:56.581Z,1004.63
2018-06-14T04:00:56.604Z,1004.67
2018-06-14T04:01:56.630Z,1004.66
2018-06-14T04:02:56.650Z,1004.66
2018-06-14T04:03:56.688Z,1004.7
2018-06-14T04:04:56.688Z,1004.72
2018-06-14T04:05:56.714Z,1004.76
2018-06-14T04:06:56.736Z,1004.75
2018-06-14T04:07:56.748Z,1004.77
2018-06-14T04:08:56.770Z,1004.79
2018-06-14T04:09:56.799Z,1004.79
2018-06-14T04:10:56.813Z,1004.81
2018-06-14T04:13:22.604Z,1004.79
2018-06-14T04:14:22.633Z,1004.82
2018-06-14T04:15:22.650Z,1004.76
2018-06-14T04:16:22.667Z,1004.76
2018-06-14T04:17:22.697Z,1004.78
2018-06-14T04:18:22.710Z,1004.77
2018-06-14T04:19:22.730Z,1004.81
2018-06-14T04:20:22.797Z,1004.79
2018-06-14T04:21:22.782Z,1004.82
2018-06-14T04:22:22.797Z,1004.83
2018-06-14T04:23:22.819Z,1004.88
2018-06-14T04:24:22.837Z,1004.92
2018-06-14T04:25:22.866Z,1004.88
2018-06-14T04:26:22.879Z,1004.88
2018-06-14T04:27:22.955Z,1004.9
2018-06-14T04:28:22.926Z,1004.94
2018-06-14T04:29:22.951Z,1004.86
2018-06-14T04:30:22.976Z,1004.9
2018-06-14T04:31:23.009Z,1004.86
2018-06-14T04:32:23.006Z,1004.87
2018-06-14T04:33:23.035Z,1004.88
2018-06-14T04:34:23.054Z,1004.86
2018-06-14T04:35:23.076Z,1004.87
2018-06-14T04:36:23.100Z,1004.89
2018-06-14T04:37:23.114Z,1004.89
2018-06-14T04:38:23.145Z,1004.9
2018-06-14T04:39:23.213Z,1004.95
2018-06-14T04:40:23.185Z,1004.99
2018-06-14T04:41:23.198Z,1005.03
2018-06-14T04:42:23.226Z,1005.04
2018-06-14T04:43:23.242Z,1005.02
2018-06-14T04:44:23.265Z,1005.03
2018-06-14T04:45:23.285Z,1005.01
2018-06-14T04:46:23.308Z,1005
2018-06-14T04:47:23.331Z,1004.97
2018-06-14T04:48:23.349Z,1005
2018-06-14T04:49:23.370Z,1004.99
2018-06-14T04:50:23.389Z,1005
2018-06-14T04:51:23.418Z,1005.03
2018-06-14T04:52:23.435Z,1005.05
2018-06-14T04:53:23.455Z,1005.06
2018-06-14T04:54:23.478Z,1005.12
2018-06-14T04:55:23.494Z,1005.09
2018-06-14T04:56:23.518Z,1005.12
2018-06-14T04:57:23.544Z,1005.13
2018-06-14T04:58:23.560Z,1005.18
2018-06-14T04:59:23.577Z,1005.16
2018-06-14T05:00:23.602Z,1005.13
2018-06-14T05:01:23.624Z,1005.13
2018-06-14T05:02:23.656Z,1005.16
2018-06-14T05:03:23.666Z,1005.13
2018-06-14T05:04:23.689Z,1005.14
2018-06-14T05:05:23.711Z,1005.19
2018-06-14T05:06:23.729Z,1005.15
2018-06-14T05:07:23.759Z,1005.14
2018-06-14T05:08:23.779Z,1005.21
2018-06-14T05:09:23.790Z,1005.18
2018-06-14T05:10:23.815Z,1005.21
2018-06-14T05:11:23.837Z,1005.18
2018-06-14T05:12:23.855Z,1005.21
2018-06-14T05:13:23.878Z,1005.21
2018-06-14T05:14:23.899Z,1005.19
2018-06-14T05:15:23.929Z,1005.18
2018-06-14T05:16:23.943Z,1005.19
2018-06-14T05:17:23.960Z,1005.21
2018-06-14T05:18:23.986Z,1005.21
2018-06-14T05:19:24.007Z,1005.22
2018-06-14T05:20:24.027Z,1005.18
2018-06-14T05:21:24.050Z,1005.19
2018-06-14T05:22:24.072Z,1005.18
2018-06-14T05:23:24.097Z,1005.17
2018-06-14T05:24:24.113Z,1005.19
2018-06-14T05:25:24.143Z,1005.17
2018-06-14T05:26:24.163Z,1005.17
2018-06-14T05:27:24.182Z,1005.17
2018-06-14T05:28:24.203Z,1005.21
2018-06-14T05:29:24.218Z,1005.21
2018-06-14T05:30:24.243Z,1005.2
2018-06-14T05:31:24.266Z,1005.2
2018-06-14T05:32:24.281Z,1005.27
2018-06-14T05:33:24.305Z,1005.21
2018-06-14T05:34:24.324Z,1005.21
2018-06-14T05:35:24.350Z,1005.2
2018-06-14T05:36:24.369Z,1005.26
2018-06-14T05:37:24.389Z,1005.18
2018-06-14T05:38:24.419Z,1005.25
2018-06-14T05:39:24.435Z,1005.25
2018-06-14T05:40:24.455Z,1005.23
2018-06-14T05:41:24.490Z,1005.23
2018-06-14T05:42:24.570Z,1005.21
2018-06-14T05:43:24.520Z,1005.29
2018-06-14T05:44:24.546Z,1005.26
2018-06-14T05:45:24.561Z,1005.26
2018-06-14T05:46:24.583Z,1005.28
2018-06-14T05:47:24.605Z,1005.24
2018-06-14T05:48:24.629Z,1005.29
2018-06-14T05:49:24.652Z,1005.26
2018-06-14T05:50:24.676Z,1005.25
2018-06-14T05:51:24.695Z,1005.22
2018-06-14T05:52:24.716Z,1005.24
2018-06-14T05:53:24.733Z,1005.25
2018-06-14T05:54:24.757Z,1005.22
2018-06-14T05:55:24.778Z,1005.21
2018-06-14T05:56:24.803Z,1005.21
2018-06-14T05:57:24.818Z,1005.17
2018-06-14T05:58:24.840Z,1005.2
2018-06-14T05:59:24.869Z,1005.16
2018-06-14T06:00:24.886Z,1005.17
2018-06-14T06:01:24.909Z,1005.14
2018-06-14T06:02:24.938Z,1005.14
2018-06-14T06:03:24.953Z,1005.11
2018-06-14T06:04:24.969Z,1005.15
2018-06-14T06:05:25.000Z,1005.11
2018-06-14T06:06:25.018Z,1005.12
2018-06-14T06:07:25.041Z,1005.07
2018-06-14T06:08:25.064Z,1005.09
2018-06-14T06:09:25.081Z,1005.1
2018-06-14T06:10:25.102Z,1005.09
2018-06-14T06:11:25.129Z,1005.08
2018-06-14T06:12:25.146Z,1005.08
2018-06-14T06:13:25.172Z,1005.05
2018-06-14T06:14:25.188Z,1005.03
2018-06-14T06:15:25.214Z,1005.08
2018-06-14T06:16:25.230Z,1005.05
2018-06-14T06:17:25.259Z,1005.08
2018-06-14T06:18:25.275Z,1005.09
2018-06-14T06:19:25.297Z,1005.1
2018-06-14T06:20:25.317Z,1005.1
2018-06-14T06:21:25.338Z,1005.12
2018-06-14T06:22:25.372Z,1005.12
2018-06-14T06:23:25.416Z,1005.11
2018-06-14T06:24:25.409Z,1005.14
2018-06-14T06:25:25.433Z,1005.14
2018-06-14T06:26:25.527Z,1005.13
2018-06-14T06:27:25.481Z,1005.15
2018-06-14T06:28:25.490Z,1005.13
2018-06-14T06:29:25.516Z,1005.18
2018-06-14T06:30:25.631Z,1005.13
2018-06-14T06:31:25.559Z,1005.14
2018-06-14T06:32:25.582Z,1005.14
2018-06-14T06:33:25.702Z,1005.14
2018-06-14T06:34:25.625Z,1005.11
2018-06-14T06:35:25.647Z,1005.07
2018-06-14T06:36:25.666Z,1005.13
2018-06-14T06:37:25.686Z,1005.09
2018-06-14T06:38:25.709Z,1005.09
2018-06-14T06:39:25.734Z,1005.11
2018-06-14T06:40:25.759Z,1005.12
2018-06-14T06:41:25.782Z,1005.08
2018-06-14T06:42:25.801Z,1005.1
2018-06-14T06:43:25.823Z,1005.09
2018-06-14T06:44:25.846Z,1005.1
2018-06-14T06:45:25.868Z,1005.13
2018-06-14T06:46:25.886Z,1005.16
2018-06-14T06:47:25.910Z,1005.13
2018-06-14T06:48:25.934Z,1005.15
2018-06-14T06:49:25.959Z,1005.11
2018-06-14T06:50:25.973Z,1005.15
2018-06-14T06:51:25.997Z,1005.12
2018-06-14T06:52:26.022Z,1005.14
2018-06-14T06:53:26.183Z,1005.14
2018-06-14T06:54:26.069Z,1005.17
2018-06-14T06:55:26.086Z,1005.2
2018-06-14T06:56:26.108Z,1005.19
2018-06-14T06:57:26.138Z,1005.18
2018-06-14T06:58:26.161Z,1005.16
2018-06-14T06:59:26.186Z,1005.18
2018-06-14T07:00:26.195Z,1005.17
2018-06-14T07:01:26.220Z,1005.13
2018-06-14T07:02:26.245Z,1005.12
2018-06-14T07:03:26.266Z,1005.14
2018-06-14T07:04:26.284Z,1005.14
2018-06-14T07:05:26.317Z,1005.17
2018-06-14T07:06:26.369Z,1005.18
2018-06-14T07:07:26.355Z,1005.19
2018-06-14T07:08:26.373Z,1005.19
2018-06-14T07:09:26.399Z,1005.18
2018-06-14T07:10:26.428Z,1005.23
2018-06-14T07:11:26.445Z,1005.2
2018-06-14T07:12:26.472Z,1005.17
2018-06-14T07:13:26.490Z,1005.16
2018-06-14T07:14:26.512Z,1005.15
2018-06-14T07:15:26.535Z,1005.16
2018-06-14T07:16:26.561Z,1005.14
2018-06-14T07:17:26.575Z,1005.11
2018-06-14T07:18:26.602Z,1005.11
2018-06-14T07:19:26.628Z,1005.1
2018-06-14T07:20:26.648Z,1005.08
2018-06-14T07:21:26.721Z,1005.06
2018-06-14T07:22:26.687Z,1005.1
2018-06-14T07:23:26.710Z,1005.08
2018-06-14T07:24:26.731Z,1005.05
2018-06-14T07:25:26.759Z,1005.05
2018-06-14T07:26:26.785Z,1005.04
2018-06-14T07:27:26.809Z,1005.08
2018-06-14T07:28:26.826Z,1005.04
2018-06-14T07:29:26.850Z,1005.03
2018-06-14T07:30:26.880Z,1005.04
2018-06-14T07:31:26.892Z,1005.03
2018-06-14T07:32:26.914Z,1005.06
2018-06-14T07:33:26.944Z,1005.03
2018-06-14T07:34:26.965Z,1005.06
2018-06-14T07:35:26.979Z,1005.04
2018-06-14T07:36:27.002Z,1005.06
2018-06-14T07:37:27.028Z,1005.08
2018-06-14T07:38:27.055Z,1005.04
2018-06-14T07:39:27.070Z,1005.03
2018-06-14T07:40:27.101Z,1005.07
2018-06-14T07:41:27.115Z,1004.99
2018-06-14T07:42:27.140Z,1005
2018-06-14T07:43:27.163Z,1005.01
2018-06-14T07:44:27.182Z,1004.96
2018-06-14T07:45:27.206Z,1004.96
2018-06-14T07:46:27.233Z,1004.97
2018-06-14T07:47:27.250Z,1004.96
2018-06-14T07:48:27.272Z,1004.96
2018-06-14T07:49:27.312Z,1004.97
2018-06-14T07:50:27.323Z,1004.96
2018-06-14T07:51:27.341Z,1005
2018-06-14T07:52:27.373Z,1004.99
2018-06-14T07:53:27.391Z,1004.98
2018-06-14T07:54:27.419Z,1004.97
2018-06-14T07:55:27.437Z,1004.97
2018-06-14T07:56:27.457Z,1004.96
2018-06-14T07:57:27.483Z,1004.94
2018-06-14T07:58:27.501Z,1004.95
2018-06-14T07:59:27.525Z,1004.94
2018-06-14T08:00:27.553Z,1004.91
2018-06-14T08:01:27.574Z,1004.91
2018-06-14T08:02:27.599Z,1004.91
2018-06-14T08:03:27.613Z,1004.88
2018-06-14T08:04:27.646Z,1004.87
2018-06-14T08:05:27.666Z,1004.93
2018-06-14T08:06:27.742Z,1004.91
2018-06-14T08:07:27.710Z,1004.96
2018-06-14T08:08:27.735Z,1004.97
2018-06-14T08:09:27.755Z,1004.99
2018-06-14T08:10:27.773Z,1004.96
2018-06-14T08:11:27.804Z,1004.95
2018-06-14T08:12:27.927Z,1004.94
2018-06-14T08:13:27.851Z,1004.92
2018-06-14T08:14:27.885Z,1004.96
2018-06-14T08:15:27.893Z,1004.98
2018-06-14T08:16:27.914Z,1004.89
2018-06-14T08:17:27.941Z,1004.94
2018-06-14T08:18:27.956Z,1004.91
2018-06-14T08:19:27.988Z,1004.86
2018-06-14T08:20:28.006Z,1004.89
2018-06-14T08:21:28.030Z,1004.89
2018-06-14T08:22:28.054Z,1004.87
2018-06-14T08:23:28.080Z,1004.86
2018-06-14T08:24:28.102Z,1004.88
2018-06-14T08:25:28.120Z,1004.86
2018-06-14T08:26:28.155Z,1004.86
2018-06-14T08:27:28.164Z,1004.88
2018-06-14T08:28:28.195Z,1004.9
2018-06-14T08:29:28.220Z,1004.9
2018-06-14T08:30:28.242Z,1004.93
2018-06-14T08:31:28.262Z,1004.95
2018-06-14T08:32:28.288Z,1004.92
2018-06-14T08:33:28.309Z,1004.91
2018-06-14T08:34:28.335Z,1004.87
2018-06-14T08:35:28.355Z,1004.9
2018-06-14T08:36:28.380Z,1004.88
2018-06-14T08:37:28.406Z,1004.88
2018-06-14T08:38:28.430Z,1004.88
2018-06-14T08:39:28.450Z,1004.88
2018-06-14T08:40:28.469Z,1004.9
2018-06-14T08:41:28.499Z,1004.9
2018-06-14T08:42:28.520Z,1004.91
2018-06-14T08:43:28.541Z,1004.87
2018-06-14T08:44:28.567Z,1004.89
2018-06-14T08:45:28.593Z,1004.89
2018-06-14T08:46:28.617Z,1004.86
2018-06-14T08:47:28.633Z,1004.84
2018-06-14T08:48:28.666Z,1004.89
2018-06-14T08:49:28.682Z,1004.9
2018-06-14T08:50:28.705Z,1004.86
2018-06-14T08:51:28.729Z,1004.92
2018-06-14T08:52:28.754Z,1004.95
2018-06-14T08:53:28.783Z,1004.95
2018-06-14T08:54:28.802Z,1004.94
2018-06-14T08:55:28.827Z,1004.94
2018-06-14T08:56:28.858Z,1004.98
2018-06-14T08:57:28.870Z,1005
2018-06-14T08:58:28.900Z,1004.99
2018-06-14T08:59:28.924Z,1005
2018-06-14T09:00:28.950Z,1004.99
2018-06-14T09:01:28.969Z,1005.01
2018-06-14T09:02:28.997Z,1004.96
2018-06-14T09:03:29.023Z,1004.98
2018-06-14T09:04:29.045Z,1004.97
2018-06-14T09:05:29.066Z,1004.98
2018-06-14T09:06:29.098Z,1004.97
2018-06-14T09:07:29.115Z,1005
2018-06-14T09:08:29.151Z,1004.96
2018-06-14T09:09:29.167Z,1004.96
2018-06-14T09:10:29.186Z,1004.98
2018-06-14T09:11:29.236Z,1004.91
2018-06-14T09:12:29.236Z,1004.93
2018-06-14T09:13:29.274Z,1004.93
2018-06-14T09:14:29.301Z,1004.95
2018-06-14T09:15:29.323Z,1004.93
2018-06-14T09:16:29.335Z,1004.92
2018-06-14T09:17:29.360Z,1004.89
2018-06-14T09:18:29.379Z,1004.91
2018-06-14T09:19:29.403Z,1004.88
2018-06-14T09:20:29.437Z,1004.84
2018-06-14T09:21:29.453Z,1004.84
2018-06-14T09:22:29.487Z,1004.78
2018-06-14T09:23:29.508Z,1004.8
2018-06-14T09:24:29.529Z,1004.79
2018-06-14T09:25:29.557Z,1004.78
2018-06-14T09:26:29.586Z,1004.79
2018-06-14T09:27:29.601Z,1004.74
2018-06-14T09:28:29.634Z,1004.75
2018-06-14T09:29:29.659Z,1004.77
2018-06-14T09:30:29.681Z,1004.76
2018-06-14T09:31:29.710Z,1004.77
2018-06-14T09:32:29.729Z,1004.75
2018-06-14T09:33:29.767Z,1004.76
2018-06-14T09:34:29.787Z,1004.78
2018-06-14T09:35:29.803Z,1004.78
2018-06-14T09:36:29.833Z,1004.81
2018-06-14T09:37:29.856Z,1004.78
2018-06-14T09:38:29.887Z,1004.76
2018-06-14T09:39:29.909Z,1004.73
2018-06-14T09:40:29.932Z,1004.73
2018-06-14T09:41:29.954Z,1004.7
2018-06-14T09:42:30.047Z,1004.76
2018-06-14T09:43:30.014Z,1004.75
2018-06-14T09:44:30.034Z,1004.73
2018-06-14T09:45:30.060Z,1004.76
2018-06-14T09:46:30.085Z,1004.76
2018-06-14T09:47:30.112Z,1004.77
2018-06-14T09:48:30.137Z,1004.75
2018-06-14T09:49:30.163Z,1004.75
2018-06-14T09:50:30.193Z,1004.73
2018-06-14T09:51:30.215Z,1004.7
2018-06-14T09:52:30.240Z,1004.71
2018-06-14T09:53:30.269Z,1004.73
2018-06-14T09:54:30.290Z,1004.72
2018-06-14T09:55:30.315Z,1004.65
2018-06-14T09:56:30.347Z,1004.64
2018-06-14T09:57:30.375Z,1004.65
2018-06-14T09:58:30.396Z,1004.63
2018-06-14T09:59:30.421Z,1004.65
2018-06-14T10:00:30.497Z,1004.61
2018-06-14T10:01:30.472Z,1004.6
2018-06-14T10:02:30.500Z,1004.62
2018-06-14T10:03:30.526Z,1004.6
2018-06-14T10:04:30.546Z,1004.6
2018-06-14T10:05:30.621Z,1004.59
2018-06-14T10:06:30.598Z,1004.6
2018-06-14T10:07:30.624Z,1004.56
2018-06-14T10:08:30.651Z,1004.51
2018-06-14T10:09:30.677Z,1004.53
2018-06-14T10:10:30.708Z,1004.53
2018-06-14T10:11:30.737Z,1004.55
2018-06-14T10:12:30.758Z,1004.58
2018-06-14T10:13:30.780Z,1004.55
2018-06-14T10:14:30.813Z,1004.52
2018-06-14T10:15:30.834Z,1004.54
2018-06-14T10:16:30.869Z,1004.55
2018-06-14T10:17:30.894Z,1004.54
2018-06-14T10:18:30.920Z,1004.55
2018-06-14T10:19:30.944Z,1004.53
2018-06-14T10:20:30.965Z,1004.47
2018-06-14T10:21:30.992Z,1004.48
2018-06-14T10:22:31.018Z,1004.48
2018-06-14T10:23:31.052Z,1004.5
2018-06-14T10:24:31.080Z,1004.48
2018-06-14T10:25:31.097Z,1004.5
2018-06-14T10:26:31.134Z,1004.46
2018-06-14T10:27:31.157Z,1004.45
2018-06-14T10:28:31.178Z,1004.49
2018-06-14T10:29:31.212Z,1004.46
2018-06-14T10:30:31.238Z,1004.49
2018-06-14T10:31:31.257Z,1004.45
2018-06-14T10:32:31.283Z,1004.4
2018-06-14T10:33:31.521Z,1004.4
2018-06-14T10:34:31.337Z,1004.4
2018-06-14T10:35:31.368Z,1004.36
2018-06-14T10:36:31.397Z,1004.37
2018-06-14T10:37:31.421Z,1004.37
2018-06-14T10:38:31.446Z,1004.35
2018-06-14T10:39:31.473Z,1004.34
2018-06-14T10:40:31.503Z,1004.32
2018-06-14T10:41:31.528Z,1004.34
2018-06-14T10:42:31.558Z,1004.34
2018-06-14T10:43:31.608Z,1004.33
2018-06-14T10:44:31.610Z,1004.33
2018-06-14T10:45:31.640Z,1004.32
2018-06-14T10:46:31.665Z,1004.34
2018-06-14T10:47:31.693Z,1004.33
2018-06-14T10:48:31.718Z,1004.31
2018-06-14T10:49:31.741Z,1004.29
2018-06-14T10:50:31.773Z,1004.32
2018-06-14T10:51:31.798Z,1004.25
2018-06-14T10:52:31.820Z,1004.28
2018-06-14T10:53:31.854Z,1004.32
2018-06-14T10:54:31.887Z,1004.3
2018-06-14T10:55:31.904Z,1004.33
2018-06-14T10:56:31.935Z,1004.32
2018-06-14T10:57:31.956Z,1004.35
2018-06-14T10:58:31.989Z,1004.37
2018-06-14T10:59:32.011Z,1004.35
2018-06-14T11:00:32.043Z,1004.34
2018-06-14T11:01:32.069Z,1004.29
2018-06-14T11:02:32.098Z,1004.34
2018-06-14T11:03:32.123Z,1004.36
2018-06-14T11:04:32.145Z,1004.35
2018-06-14T11:05:32.178Z,1004.32
2018-06-14T11:06:32.204Z,1004.33
2018-06-14T11:07:32.233Z,1004.32
2018-06-14T11:08:32.266Z,1004.31
2018-06-14T11:09:32.288Z,1004.31
2018-06-14T11:10:32.317Z,1004.31
2018-06-14T11:11:32.342Z,1004.28
2018-06-14T11:12:32.401Z,1004.32
2018-06-14T11:13:32.404Z,1004.27
2018-06-14T11:14:32.423Z,1004.28
2018-06-14T11:15:32.458Z,1004.25
2018-06-14T11:16:32.480Z,1004.26
2018-06-14T11:17:32.515Z,1004.3
2018-06-14T11:18:32.541Z,1004.28
2018-06-14T11:19:32.562Z,1004.26
2018-06-14T11:20:32.595Z,1004.31
2018-06-14T11:21:32.626Z,1004.24
2018-06-14T11:22:32.646Z,1004.22
2018-06-14T11:23:32.674Z,1004.2
2018-06-14T11:24:32.711Z,1004.17
2018-06-14T11:25:32.732Z,1004.21
2018-06-14T11:26:32.768Z,1004.16
2018-06-14T11:27:32.789Z,1004.21
2018-06-14T11:28:32.820Z,1004.17
2018-06-14T11:29:32.846Z,1004.12
2018-06-14T11:30:32.872Z,1004.17
2018-06-14T11:31:32.902Z,1004.24
2018-06-14T11:32:32.940Z,1004.2
2018-06-14T11:33:32.957Z,1004.18
2018-06-14T11:34:32.989Z,1004.23
2018-06-14T11:35:33.015Z,1004.12
2018-06-14T11:36:33.045Z,1004.13
2018-06-14T11:37:33.080Z,1004.13
2018-06-14T11:38:33.105Z,1004.15
2018-06-14T11:39:33.149Z,1004.09
2018-06-14T11:40:33.166Z,1004.08
2018-06-14T11:41:33.190Z,1004.06
2018-06-14T11:42:33.223Z,1004.06
2018-06-14T11:43:33.253Z,1004.13
2018-06-14T11:44:33.278Z,1004.04
2018-06-14T11:45:33.307Z,1004.01
2018-06-14T11:46:33.337Z,1003.97
2018-06-14T11:47:33.368Z,1003.95
2018-06-14T11:48:33.397Z,1003.9
2018-06-14T11:49:33.431Z,1003.92
2018-06-14T11:50:33.452Z,1003.93
2018-06-14T11:51:33.477Z,1003.98
2018-06-14T11:52:33.506Z,1003.96
2018-06-14T11:53:33.541Z,1003.94
2018-06-14T11:54:33.571Z,1003.93
2018-06-14T11:55:33.601Z,1003.92
2018-06-14T11:56:33.635Z,1003.9
2018-06-14T11:57:33.661Z,1003.9
2018-06-14T11:58:33.692Z,1003.9
2018-06-14T11:59:33.716Z,1003.89
2018-06-14T12:00:33.748Z,1003.87
2018-06-14T12:01:33.777Z,1003.86
2018-06-14T12:02:33.811Z,1003.84
2018-06-14T12:03:33.836Z,1003.85
2018-06-14T12:04:33.871Z,1003.93
2018-06-14T12:05:33.892Z,1003.84
2018-06-14T12:06:33.926Z,1003.83
2018-06-14T12:07:33.952Z,1003.8
2018-06-14T12:08:33.988Z,1003.84
2018-06-14T12:09:34.013Z,1003.84
2018-06-14T12:10:34.043Z,1003.85
2018-06-14T12:11:34.076Z,1003.88